sensor_id;sensor_type;location;lat;lon;timestamp;temperature;humidity
15983;DHT22;14442;50.196;8.096;2022-12-29T00:01:30;22.70;44.80
15983;DHT22;14442;50.196;8.096;2022-12-29T00:03:57;22.70;44.90
15983;DHT22;14442;50.196;8.096;2022-12-29T00:06:25;22.70;44.80
15983;DHT22;14442;50.196;8.096;2022-12-29T00:08:52;22.70;44.80
15983;DHT22;14442;50.196;8.096;2022-12-29T00:11:21;22.70;44.80
15983;DHT22;14442;50.196;8.096;2022-12-29T00:13:48;22.70;45.10
15983;DHT22;14442;50.196;8.096;2022-12-29T00:16:34;22.70;44.90
15983;DHT22;14442;50.196;8.096;2022-12-29T00:19:02;22.70;45.20
15983;DHT22;14442;50.196;8.096;2022-12-29T00:21:30;22.70;45.00
15983;DHT22;14442;50.196;8.096;2022-12-29T00:24:16;22.70;45.10
15983;DHT22;14442;50.196;8.096;2022-12-29T00:27:10;22.70;45.00
15983;DHT22;14442;50.196;8.096;2022-12-29T00:29:55;22.70;45.00
15983;DHT22;14442;50.196;8.096;2022-12-29T00:32:39;22.70;45.10
15983;DHT22;14442;50.196;8.096;2022-12-29T00:35:26;22.70;45.00
15983;DHT22;14442;50.196;8.096;2022-12-29T00:37:58;22.60;45.10
15983;DHT22;14442;50.196;8.096;2022-12-29T00:40:43;22.70;45.30
15983;DHT22;14442;50.196;8.096;2022-12-29T00:43:27;22.60;45.20
15983;DHT22;14442;50.196;8.096;2022-12-29T00:46:11;22.60;45.10
15983;DHT22;14442;50.196;8.096;2022-12-29T00:48:38;22.50;45.00
15983;DHT22;14442;50.196;8.096;2022-12-29T00:51:22;22.50;45.00
15983;DHT22;14442;50.196;8.096;2022-12-29T00:53:50;22.40;45.00
15983;DHT22;14442;50.196;8.096;2022-12-29T00:56:17;22.40;45.00
15983;DHT22;14442;50.196;8.096;2022-12-29T00:58:43;22.40;45.00
15983;DHT22;14442;50.196;8.096;2022-12-29T01:01:10;22.40;45.00
15983;DHT22;14442;50.196;8.096;2022-12-29T01:03:37;22.30;44.90
15983;DHT22;14442;50.196;8.096;2022-12-29T01:06:06;22.40;45.00
15983;DHT22;14442;50.196;8.096;2022-12-29T01:08:34;22.30;44.90
15983;DHT22;14442;50.196;8.096;2022-12-29T01:11:04;22.30;44.90
15983;DHT22;14442;50.196;8.096;2022-12-29T01:13:30;22.30;44.90
15983;DHT22;14442;50.196;8.096;2022-12-29T01:15:57;22.30;44.90
15983;DHT22;14442;50.196;8.096;2022-12-29T01:18:25;22.30;44.90
15983;DHT22;14442;50.196;8.096;2022-12-29T01:20:58;22.30;44.90
15983;DHT22;14442;50.196;8.096;2022-12-29T01:23:25;22.30;44.90
15983;DHT22;14442;50.196;8.096;2022-12-29T01:25:52;22.30;44.90
15983;DHT22;14442;50.196;8.096;2022-12-29T01:28:20;22.30;44.90
15983;DHT22;14442;50.196;8.096;2022-12-29T01:30:46;22.20;44.80
15983;DHT22;14442;50.196;8.096;2022-12-29T01:33:13;22.30;44.90
15983;DHT22;14442;50.196;8.096;2022-12-29T01:35:40;22.20;44.80
15983;DHT22;14442;50.196;8.096;2022-12-29T01:38:06;22.20;44.70
15983;DHT22;14442;50.196;8.096;2022-12-29T01:40:33;22.20;44.70
15983;DHT22;14442;50.196;8.096;2022-12-29T01:43:00;22.30;44.80
15983;DHT22;14442;50.196;8.096;2022-12-29T01:45:28;22.20;44.70
15983;DHT22;14442;50.196;8.096;2022-12-29T01:47:57;22.20;44.60
15983;DHT22;14442;50.196;8.096;2022-12-29T01:50:27;22.30;44.70
15983;DHT22;14442;50.196;8.096;2022-12-29T01:52:58;22.20;44.60
15983;DHT22;14442;50.196;8.096;2022-12-29T01:55:27;22.30;44.60
15983;DHT22;14442;50.196;8.096;2022-12-29T01:57:57;22.30;44.60
15983;DHT22;14442;50.196;8.096;2022-12-29T02:00:28;22.30;44.50
15983;DHT22;14442;50.196;8.096;2022-12-29T02:02:55;22.30;44.50
15983;DHT22;14442;50.196;8.096;2022-12-29T02:05:26;22.30;44.40
15983;DHT22;14442;50.196;8.096;2022-12-29T02:07:54;22.30;44.40
15983;DHT22;14442;50.196;8.096;2022-12-29T02:10:22;22.30;44.30
15983;DHT22;14442;50.196;8.096;2022-12-29T02:12:50;22.30;44.30
15983;DHT22;14442;50.196;8.096;2022-12-29T02:15:16;22.30;44.40
15983;DHT22;14442;50.196;8.096;2022-12-29T02:17:59;22.30;44.30
15983;DHT22;14442;50.196;8.096;2022-12-29T02:23:48;22.30;44.20
15983;DHT22;14442;50.196;8.096;2022-12-29T02:26:29;22.40;45.00
15983;DHT22;14442;50.196;8.096;2022-12-29T02:29:14;22.30;44.20
15983;DHT22;14442;50.196;8.096;2022-12-29T02:31:50;22.40;44.30
15983;DHT22;14442;50.196;8.096;2022-12-29T02:34:26;22.40;44.30
15983;DHT22;14442;50.196;8.096;2022-12-29T02:37:02;22.40;44.30
15983;DHT22;14442;50.196;8.096;2022-12-29T02:39:35;22.40;44.30
15983;DHT22;14442;50.196;8.096;2022-12-29T02:42:12;22.40;44.30
15983;DHT22;14442;50.196;8.096;2022-12-29T02:44:47;22.40;44.20
15983;DHT22;14442;50.196;8.096;2022-12-29T02:47:22;22.40;44.10
15983;DHT22;14442;50.196;8.096;2022-12-29T02:49:57;22.40;44.10
15983;DHT22;14442;50.196;8.096;2022-12-29T02:52:30;22.50;44.20
15983;DHT22;14442;50.196;8.096;2022-12-29T02:54:58;22.50;44.20
15983;DHT22;14442;50.196;8.096;2022-12-29T02:57:32;22.50;44.20
15983;DHT22;14442;50.196;8.096;2022-12-29T03:00:03;22.50;44.20
15983;DHT22;14442;50.196;8.096;2022-12-29T03:03:14;22.50;44.20
15983;DHT22;14442;50.196;8.096;2022-12-29T03:06:05;22.50;44.20
15983;DHT22;14442;50.196;8.096;2022-12-29T03:08:45;22.60;44.30
15983;DHT22;14442;50.196;8.096;2022-12-29T03:11:14;22.50;44.20
15983;DHT22;14442;50.196;8.096;2022-12-29T03:13:59;22.60;44.20
15983;DHT22;14442;50.196;8.096;2022-12-29T03:16:47;22.60;44.20
15983;DHT22;14442;50.196;8.096;2022-12-29T03:19:19;22.60;44.20
15983;DHT22;14442;50.196;8.096;2022-12-29T03:21:51;22.60;44.20
15983;DHT22;14442;50.196;8.096;2022-12-29T03:24:40;22.60;44.20
15983;DHT22;14442;50.196;8.096;2022-12-29T03:27:10;22.50;44.10
15983;DHT22;14442;50.196;8.096;2022-12-29T03:29:41;22.60;44.30
15983;DHT22;14442;50.196;8.096;2022-12-29T03:32:11;22.60;44.20
15983;DHT22;14442;50.196;8.096;2022-12-29T03:34:40;22.60;44.30
15983;DHT22;14442;50.196;8.096;2022-12-29T03:37:11;22.60;44.30
15983;DHT22;14442;50.196;8.096;2022-12-29T03:39:38;22.60;44.30
15983;DHT22;14442;50.196;8.096;2022-12-29T03:42:10;22.60;44.30
15983;DHT22;14442;50.196;8.096;2022-12-29T03:44:40;22.60;44.30
15983;DHT22;14442;50.196;8.096;2022-12-29T03:47:07;22.60;44.30
15983;DHT22;14442;50.196;8.096;2022-12-29T03:49:35;22.60;44.30
15983;DHT22;14442;50.196;8.096;2022-12-29T03:52:04;22.60;44.30
15983;DHT22;14442;50.196;8.096;2022-12-29T03:54:31;22.60;44.30
15983;DHT22;14442;50.196;8.096;2022-12-29T03:56:58;22.60;44.30
15983;DHT22;14442;50.196;8.096;2022-12-29T03:59:25;22.60;44.30
15983;DHT22;14442;50.196;8.096;2022-12-29T04:01:52;22.60;44.30
15983;DHT22;14442;50.196;8.096;2022-12-29T04:04:18;22.60;44.30
15983;DHT22;14442;50.196;8.096;2022-12-29T04:06:45;22.60;44.40
15983;DHT22;14442;50.196;8.096;2022-12-29T04:09:13;22.60;44.30
15983;DHT22;14442;50.196;8.096;2022-12-29T04:11:40;22.60;44.30
15983;DHT22;14442;50.196;8.096;2022-12-29T04:14:06;22.60;44.30
15983;DHT22;14442;50.196;8.096;2022-12-29T04:16:33;22.60;44.40
15983;DHT22;14442;50.196;8.096;2022-12-29T04:19:01;22.60;44.40
15983;DHT22;14442;50.196;8.096;2022-12-29T04:21:28;22.60;44.30
15983;DHT22;14442;50.196;8.096;2022-12-29T04:23:54;22.70;44.40
15983;DHT22;14442;50.196;8.096;2022-12-29T04:26:22;22.60;44.30
15983;DHT22;14442;50.196;8.096;2022-12-29T04:28:49;22.60;44.40
15983;DHT22;14442;50.196;8.096;2022-12-29T04:31:15;22.60;44.30
15983;DHT22;14442;50.196;8.096;2022-12-29T04:33:42;22.70;44.30
15983;DHT22;14442;50.196;8.096;2022-12-29T04:36:09;22.70;44.30
15983;DHT22;14442;50.196;8.096;2022-12-29T04:38:35;22.70;44.30
15983;DHT22;14442;50.196;8.096;2022-12-29T04:41:03;22.70;44.30
15983;DHT22;14442;50.196;8.096;2022-12-29T04:43:31;22.70;44.40
15983;DHT22;14442;50.196;8.096;2022-12-29T04:45:58;22.70;44.30
15983;DHT22;14442;50.196;8.096;2022-12-29T04:48:25;22.70;44.30
15983;DHT22;14442;50.196;8.096;2022-12-29T04:50:51;22.70;44.30
15983;DHT22;14442;50.196;8.096;2022-12-29T04:53:18;22.70;44.30
15983;DHT22;14442;50.196;8.096;2022-12-29T04:55:48;22.70;44.30
15983;DHT22;14442;50.196;8.096;2022-12-29T04:58:15;22.70;44.30
15983;DHT22;14442;50.196;8.096;2022-12-29T05:00:43;22.70;44.30
15983;DHT22;14442;50.196;8.096;2022-12-29T05:03:10;22.70;44.30
15983;DHT22;14442;50.196;8.096;2022-12-29T05:05:37;22.70;44.30
15983;DHT22;14442;50.196;8.096;2022-12-29T05:08:04;22.70;44.30
15983;DHT22;14442;50.196;8.096;2022-12-29T05:10:31;22.70;44.40
15983;DHT22;14442;50.196;8.096;2022-12-29T05:12:58;22.70;44.40
15983;DHT22;14442;50.196;8.096;2022-12-29T05:15:25;22.70;44.40
15983;DHT22;14442;50.196;8.096;2022-12-29T05:17:53;22.70;44.40
15983;DHT22;14442;50.196;8.096;2022-12-29T05:20:19;22.70;44.40
15983;DHT22;14442;50.196;8.096;2022-12-29T05:22:46;22.70;44.30
15983;DHT22;14442;50.196;8.096;2022-12-29T05:25:13;22.70;44.30
15983;DHT22;14442;50.196;8.096;2022-12-29T05:27:39;22.70;44.40
15983;DHT22;14442;50.196;8.096;2022-12-29T05:30:07;22.70;44.30
15983;DHT22;14442;50.196;8.096;2022-12-29T05:32:34;22.70;44.30
15983;DHT22;14442;50.196;8.096;2022-12-29T05:35:02;22.70;44.30
15983;DHT22;14442;50.196;8.096;2022-12-29T05:37:29;22.70;44.30
15983;DHT22;14442;50.196;8.096;2022-12-29T05:39:56;22.70;44.30
15983;DHT22;14442;50.196;8.096;2022-12-29T05:42:22;22.70;44.30
15983;DHT22;14442;50.196;8.096;2022-12-29T05:44:49;22.70;44.30
15983;DHT22;14442;50.196;8.096;2022-12-29T05:47:19;22.70;44.30
15983;DHT22;14442;50.196;8.096;2022-12-29T05:49:45;22.70;44.30
15983;DHT22;14442;50.196;8.096;2022-12-29T05:52:13;22.70;44.40
15983;DHT22;14442;50.196;8.096;2022-12-29T05:54:40;22.70;44.40
15983;DHT22;14442;50.196;8.096;2022-12-29T05:57:07;22.70;44.40
15983;DHT22;14442;50.196;8.096;2022-12-29T05:59:33;22.70;44.40
15983;DHT22;14442;50.196;8.096;2022-12-29T06:02:00;22.70;44.40
15983;DHT22;14442;50.196;8.096;2022-12-29T06:04:27;22.70;44.40
15983;DHT22;14442;50.196;8.096;2022-12-29T06:06:53;22.60;44.40
15983;DHT22;14442;50.196;8.096;2022-12-29T06:09:22;22.60;44.40
15983;DHT22;14442;50.196;8.096;2022-12-29T06:11:49;22.60;44.30
15983;DHT22;14442;50.196;8.096;2022-12-29T06:14:16;22.70;44.40
15983;DHT22;14442;50.196;8.096;2022-12-29T06:16:42;22.60;44.40
15983;DHT22;14442;50.196;8.096;2022-12-29T06:19:09;22.60;44.30
15983;DHT22;14442;50.196;8.096;2022-12-29T06:21:36;22.60;44.40
15983;DHT22;14442;50.196;8.096;2022-12-29T06:24:04;22.60;44.40
15983;DHT22;14442;50.196;8.096;2022-12-29T06:26:32;22.70;44.30
15983;DHT22;14442;50.196;8.096;2022-12-29T06:28:59;22.80;44.40
15983;DHT22;14442;50.196;8.096;2022-12-29T06:31:25;22.80;44.40
15983;DHT22;14442;50.196;8.096;2022-12-29T06:33:52;22.80;44.50
15983;DHT22;14442;50.196;8.096;2022-12-29T06:36:18;22.80;44.80
15983;DHT22;14442;50.196;8.096;2022-12-29T06:38:45;22.80;45.10
15983;DHT22;14442;50.196;8.096;2022-12-29T06:41:12;22.80;45.20
15983;DHT22;14442;50.196;8.096;2022-12-29T06:43:40;22.80;45.90
15983;DHT22;14442;50.196;8.096;2022-12-29T06:46:06;22.80;46.20
15983;DHT22;14442;50.196;8.096;2022-12-29T06:48:33;22.80;46.20
15983;DHT22;14442;50.196;8.096;2022-12-29T06:51:00;22.70;46.20
15983;DHT22;14442;50.196;8.096;2022-12-29T06:53:26;22.70;46.30
15983;DHT22;14442;50.196;8.096;2022-12-29T06:55:53;22.70;46.30
15983;DHT22;14442;50.196;8.096;2022-12-29T06:58:22;22.70;46.30
15983;DHT22;14442;50.196;8.096;2022-12-29T07:00:50;22.70;46.20
15983;DHT22;14442;50.196;8.096;2022-12-29T07:03:17;22.70;46.40
15983;DHT22;14442;50.196;8.096;2022-12-29T07:05:43;22.60;46.30
15983;DHT22;14442;50.196;8.096;2022-12-29T07:08:10;22.70;46.50
15983;DHT22;14442;50.196;8.096;2022-12-29T07:10:37;22.60;47.00
15983;DHT22;14442;50.196;8.096;2022-12-29T07:13:03;22.60;46.20
15983;DHT22;14442;50.196;8.096;2022-12-29T07:15:32;22.60;46.00
15983;DHT22;14442;50.196;8.096;2022-12-29T07:18:00;22.60;46.00
15983;DHT22;14442;50.196;8.096;2022-12-29T07:20:27;22.60;46.00
15983;DHT22;14442;50.196;8.096;2022-12-29T07:22:53;22.60;45.90
15983;DHT22;14442;50.196;8.096;2022-12-29T07:25:20;22.60;45.70
15983;DHT22;14442;50.196;8.096;2022-12-29T07:27:47;22.60;45.80
15983;DHT22;14442;50.196;8.096;2022-12-29T07:30:14;22.50;45.70
15983;DHT22;14442;50.196;8.096;2022-12-29T07:32:41;22.50;45.60
15983;DHT22;14442;50.196;8.096;2022-12-29T07:35:09;22.50;45.80
15983;DHT22;14442;50.196;8.096;2022-12-29T07:37:36;22.40;45.60
15983;DHT22;14442;50.196;8.096;2022-12-29T07:40:03;22.40;45.50
15983;DHT22;14442;50.196;8.096;2022-12-29T07:42:30;22.40;45.50
15983;DHT22;14442;50.196;8.096;2022-12-29T07:44:57;22.40;45.40
15983;DHT22;14442;50.196;8.096;2022-12-29T07:47:24;22.40;45.40
15983;DHT22;14442;50.196;8.096;2022-12-29T07:49:50;22.40;45.30
15983;DHT22;14442;50.196;8.096;2022-12-29T07:52:18;22.40;45.30
15983;DHT22;14442;50.196;8.096;2022-12-29T07:54:45;22.40;45.30
15983;DHT22;14442;50.196;8.096;2022-12-29T07:57:12;22.40;45.20
15983;DHT22;14442;50.196;8.096;2022-12-29T07:59:38;22.40;45.10
15983;DHT22;14442;50.196;8.096;2022-12-29T08:02:05;22.40;45.20
15983;DHT22;14442;50.196;8.096;2022-12-29T08:04:33;22.40;45.30
15983;DHT22;14442;50.196;8.096;2022-12-29T08:07:00;22.30;45.10
15983;DHT22;14442;50.196;8.096;2022-12-29T08:09:28;22.40;45.30
15983;DHT22;14442;50.196;8.096;2022-12-29T08:11:54;22.30;45.20
15983;DHT22;14442;50.196;8.096;2022-12-29T08:14:21;22.40;45.20
15983;DHT22;14442;50.196;8.096;2022-12-29T08:16:48;22.40;45.20
15983;DHT22;14442;50.196;8.096;2022-12-29T08:19:14;22.40;45.20
15983;DHT22;14442;50.196;8.096;2022-12-29T08:21:41;22.40;45.20
15983;DHT22;14442;50.196;8.096;2022-12-29T08:24:08;22.30;45.10
15983;DHT22;14442;50.196;8.096;2022-12-29T08:26:36;22.30;45.10
15983;DHT22;14442;50.196;8.096;2022-12-29T08:29:03;22.40;45.10
15983;DHT22;14442;50.196;8.096;2022-12-29T08:31:30;22.40;45.00
15983;DHT22;14442;50.196;8.096;2022-12-29T08:33:56;22.50;45.00
15983;DHT22;14442;50.196;8.096;2022-12-29T08:36:25;22.40;44.80
15983;DHT22;14442;50.196;8.096;2022-12-29T08:38:52;22.50;44.90
15983;DHT22;14442;50.196;8.096;2022-12-29T08:41:18;22.60;45.60
15983;DHT22;14442;50.196;8.096;2022-12-29T08:43:47;22.60;45.00
15983;DHT22;14442;50.196;8.096;2022-12-29T08:46:14;22.60;45.10
15983;DHT22;14442;50.196;8.096;2022-12-29T08:48:41;22.50;45.30
15983;DHT22;14442;50.196;8.096;2022-12-29T08:51:07;22.50;45.30
15983;DHT22;14442;50.196;8.096;2022-12-29T08:53:34;22.50;45.30
15983;DHT22;14442;50.196;8.096;2022-12-29T08:56:02;22.50;45.40
15983;DHT22;14442;50.196;8.096;2022-12-29T08:58:29;22.60;45.60
15983;DHT22;14442;50.196;8.096;2022-12-29T09:00:58;22.50;45.70
15983;DHT22;14442;50.196;8.096;2022-12-29T09:03:25;22.60;45.80
15983;DHT22;14442;50.196;8.096;2022-12-29T09:05:53;22.60;45.80
15983;DHT22;14442;50.196;8.096;2022-12-29T09:08:20;22.60;45.80
15983;DHT22;14442;50.196;8.096;2022-12-29T09:10:46;22.60;45.80
15983;DHT22;14442;50.196;8.096;2022-12-29T09:13:14;22.60;45.90
15983;DHT22;14442;50.196;8.096;2022-12-29T09:15:41;22.60;45.80
15983;DHT22;14442;50.196;8.096;2022-12-29T09:18:09;22.70;45.90
15983;DHT22;14442;50.196;8.096;2022-12-29T09:20:36;22.70;45.90
15983;DHT22;14442;50.196;8.096;2022-12-29T09:23:03;22.70;46.00
15983;DHT22;14442;50.196;8.096;2022-12-29T09:25:31;22.70;46.10
15983;DHT22;14442;50.196;8.096;2022-12-29T09:27:58;22.70;46.10
15983;DHT22;14442;50.196;8.096;2022-12-29T09:30:24;22.70;46.20
15983;DHT22;14442;50.196;8.096;2022-12-29T09:32:51;22.70;46.10
15983;DHT22;14442;50.196;8.096;2022-12-29T09:35:19;22.60;46.00
15983;DHT22;14442;50.196;8.096;2022-12-29T09:37:46;22.70;46.10
15983;DHT22;14442;50.196;8.096;2022-12-29T09:40:33;22.70;46.10
15983;DHT22;14442;50.196;8.096;2022-12-29T09:43:16;22.60;46.00
15983;DHT22;14442;50.196;8.096;2022-12-29T09:45:45;22.60;46.00
15983;DHT22;14442;50.196;8.096;2022-12-29T09:48:17;22.70;46.00
15983;DHT22;14442;50.196;8.096;2022-12-29T09:50:49;22.70;46.00
15983;DHT22;14442;50.196;8.096;2022-12-29T09:53:24;22.60;46.00
15983;DHT22;14442;50.196;8.096;2022-12-29T09:55:54;22.60;45.90
15983;DHT22;14442;50.196;8.096;2022-12-29T09:58:25;22.70;46.00
15983;DHT22;14442;50.196;8.096;2022-12-29T10:00:58;22.70;46.00
15983;DHT22;14442;50.196;8.096;2022-12-29T10:03:36;22.70;46.00
15983;DHT22;14442;50.196;8.096;2022-12-29T10:06:12;22.70;45.90
15983;DHT22;14442;50.196;8.096;2022-12-29T10:08:44;22.70;46.00
15983;DHT22;14442;50.196;8.096;2022-12-29T10:11:25;22.70;45.90
15983;DHT22;14442;50.196;8.096;2022-12-29T10:14:09;22.70;46.00
15983;DHT22;14442;50.196;8.096;2022-12-29T10:16:46;22.70;45.90
15983;DHT22;14442;50.196;8.096;2022-12-29T10:19:28;22.70;45.90
15983;DHT22;14442;50.196;8.096;2022-12-29T10:22:10;22.70;45.90
15983;DHT22;14442;50.196;8.096;2022-12-29T10:24:42;22.70;45.90
15983;DHT22;14442;50.196;8.096;2022-12-29T10:27:10;22.70;45.80
15983;DHT22;14442;50.196;8.096;2022-12-29T10:29:42;22.70;45.80
15983;DHT22;14442;50.196;8.096;2022-12-29T10:32:21;22.70;45.80
15983;DHT22;14442;50.196;8.096;2022-12-29T10:34:52;22.70;45.80
15983;DHT22;14442;50.196;8.096;2022-12-29T10:37:29;22.70;45.80
15983;DHT22;14442;50.196;8.096;2022-12-29T10:39:58;22.70;45.70
15983;DHT22;14442;50.196;8.096;2022-12-29T10:42:27;22.70;45.80
15983;DHT22;14442;50.196;8.096;2022-12-29T10:44:54;22.70;45.70
15983;DHT22;14442;50.196;8.096;2022-12-29T10:47:24;22.70;45.80
15983;DHT22;14442;50.196;8.096;2022-12-29T10:49:52;22.70;45.80
15983;DHT22;14442;50.196;8.096;2022-12-29T10:52:21;22.70;45.70
15983;DHT22;14442;50.196;8.096;2022-12-29T10:54:53;22.70;45.70
15983;DHT22;14442;50.196;8.096;2022-12-29T10:57:25;22.70;45.80
15983;DHT22;14442;50.196;8.096;2022-12-29T10:59:53;22.70;45.60
15983;DHT22;14442;50.196;8.096;2022-12-29T11:05:23;22.70;45.70
15983;DHT22;14442;50.196;8.096;2022-12-29T11:07:56;22.70;45.80
15983;DHT22;14442;50.196;8.096;2022-12-29T11:10:35;22.70;46.30
15983;DHT22;14442;50.196;8.096;2022-12-29T11:13:11;22.60;45.70
15983;DHT22;14442;50.196;8.096;2022-12-29T11:15:40;22.60;45.80
15983;DHT22;14442;50.196;8.096;2022-12-29T11:18:18;22.60;45.80
15983;DHT22;14442;50.196;8.096;2022-12-29T11:20:46;22.60;45.70
15983;DHT22;14442;50.196;8.096;2022-12-29T11:23:32;22.70;45.70
15983;DHT22;14442;50.196;8.096;2022-12-29T11:26:15;22.70;45.60
15983;DHT22;14442;50.196;8.096;2022-12-29T11:28:44;22.70;45.90
15983;DHT22;14442;50.196;8.096;2022-12-29T11:31:15;22.70;46.40
15983;DHT22;14442;50.196;8.096;2022-12-29T11:33:42;22.70;46.80
15983;DHT22;14442;50.196;8.096;2022-12-29T11:36:13;22.70;46.80
15983;DHT22;14442;50.196;8.096;2022-12-29T11:38:45;22.70;46.70
15983;DHT22;14442;50.196;8.096;2022-12-29T11:41:20;22.70;46.60
15983;DHT22;14442;50.196;8.096;2022-12-29T11:43:47;22.70;46.50
15983;DHT22;14442;50.196;8.096;2022-12-29T11:46:17;22.70;46.50
15983;DHT22;14442;50.196;8.096;2022-12-29T11:48:46;22.70;46.50
15983;DHT22;14442;50.196;8.096;2022-12-29T11:51:21;22.70;46.30
15983;DHT22;14442;50.196;8.096;2022-12-29T11:53:51;22.70;47.10
15983;DHT22;14442;50.196;8.096;2022-12-29T11:56:31;22.70;46.30
15983;DHT22;14442;50.196;8.096;2022-12-29T12:02:15;22.70;46.50
15983;DHT22;14442;50.196;8.096;2022-12-29T12:04:49;22.60;46.30
15983;DHT22;14442;50.196;8.096;2022-12-29T12:07:18;22.70;46.50
15983;DHT22;14442;50.196;8.096;2022-12-29T12:09:50;22.50;46.10
15983;DHT22;14442;50.196;8.096;2022-12-29T12:12:24;22.50;46.00
15983;DHT22;14442;50.196;8.096;2022-12-29T12:14:56;22.50;45.90
15983;DHT22;14442;50.196;8.096;2022-12-29T12:17:29;22.50;45.60
15983;DHT22;14442;50.196;8.096;2022-12-29T12:20:09;22.60;45.60
15983;DHT22;14442;50.196;8.096;2022-12-29T12:22:45;22.60;45.50
15983;DHT22;14442;50.196;8.096;2022-12-29T12:25:17;22.60;45.30
15983;DHT22;14442;50.196;8.096;2022-12-29T12:27:50;22.70;45.90
15983;DHT22;14442;50.196;8.096;2022-12-29T12:30:20;22.70;46.40
15983;DHT22;14442;50.196;8.096;2022-12-29T12:32:52;22.70;46.10
15983;DHT22;14442;50.196;8.096;2022-12-29T12:35:26;22.80;46.30
15983;DHT22;14442;50.196;8.096;2022-12-29T12:38:11;22.80;46.70
15983;DHT22;14442;50.196;8.096;2022-12-29T12:40:53;22.90;46.70
15983;DHT22;14442;50.196;8.096;2022-12-29T12:43:37;22.80;46.40
15983;DHT22;14442;50.196;8.096;2022-12-29T12:49:16;22.90;46.50
15983;DHT22;14442;50.196;8.096;2022-12-29T12:51:53;22.90;46.40
15983;DHT22;14442;50.196;8.096;2022-12-29T12:54:35;22.90;46.70
15983;DHT22;14442;50.196;8.096;2022-12-29T12:57:14;22.90;47.20
15983;DHT22;14442;50.196;8.096;2022-12-29T12:59:54;22.90;46.50
15983;DHT22;14442;50.196;8.096;2022-12-29T13:02:40;23.00;46.70
15983;DHT22;14442;50.196;8.096;2022-12-29T13:05:33;22.90;46.30
15983;DHT22;14442;50.196;8.096;2022-12-29T13:08:25;22.90;46.10
15983;DHT22;14442;50.196;8.096;2022-12-29T13:11:02;23.00;46.60
15983;DHT22;14442;50.196;8.096;2022-12-29T13:13:54;23.00;46.50
15983;DHT22;14442;50.196;8.096;2022-12-29T13:16:31;23.00;46.50
15983;DHT22;14442;50.196;8.096;2022-12-29T13:19:05;23.00;46.50
15983;DHT22;14442;50.196;8.096;2022-12-29T13:21:45;23.00;46.40
15983;DHT22;14442;50.196;8.096;2022-12-29T13:24:26;23.00;46.50
15983;DHT22;14442;50.196;8.096;2022-12-29T13:27:00;23.00;46.40
15983;DHT22;14442;50.196;8.096;2022-12-29T13:29:33;23.00;46.40
15983;DHT22;14442;50.196;8.096;2022-12-29T13:32:17;23.00;46.40
15983;DHT22;14442;50.196;8.096;2022-12-29T13:34:54;23.00;46.20
15983;DHT22;14442;50.196;8.096;2022-12-29T13:37:26;23.00;46.10
15983;DHT22;14442;50.196;8.096;2022-12-29T13:39:57;23.10;46.30
15983;DHT22;14442;50.196;8.096;2022-12-29T13:42:26;23.00;46.20
15983;DHT22;14442;50.196;8.096;2022-12-29T13:44:57;23.00;46.20
15983;DHT22;14442;50.196;8.096;2022-12-29T13:47:29;23.10;46.20
15983;DHT22;14442;50.196;8.096;2022-12-29T13:49:59;23.10;46.20
15983;DHT22;14442;50.196;8.096;2022-12-29T13:52:34;23.10;46.20
15983;DHT22;14442;50.196;8.096;2022-12-29T13:55:16;23.10;46.20
15983;DHT22;14442;50.196;8.096;2022-12-29T13:57:49;23.20;46.30
15983;DHT22;14442;50.196;8.096;2022-12-29T14:00:20;23.10;46.10
15983;DHT22;14442;50.196;8.096;2022-12-29T14:03:11;23.20;46.30
15983;DHT22;14442;50.196;8.096;2022-12-29T14:05:39;23.10;45.90
15983;DHT22;14442;50.196;8.096;2022-12-29T14:08:14;23.10;45.90
15983;DHT22;14442;50.196;8.096;2022-12-29T14:10:48;23.20;46.30
15983;DHT22;14442;50.196;8.096;2022-12-29T14:13:16;23.10;46.20
15983;DHT22;14442;50.196;8.096;2022-12-29T14:15:45;23.20;46.40
15983;DHT22;14442;50.196;8.096;2022-12-29T14:18:17;23.20;46.30
15983;DHT22;14442;50.196;8.096;2022-12-29T14:20:53;23.10;46.30
15983;DHT22;14442;50.196;8.096;2022-12-29T14:23:29;23.20;46.30
15983;DHT22;14442;50.196;8.096;2022-12-29T14:26:12;23.20;46.10
15983;DHT22;14442;50.196;8.096;2022-12-29T14:28:40;23.20;46.20
15983;DHT22;14442;50.196;8.096;2022-12-29T14:31:34;23.20;46.00
15983;DHT22;14442;50.196;8.096;2022-12-29T14:34:29;23.20;46.20
15983;DHT22;14442;50.196;8.096;2022-12-29T14:36:58;23.20;46.30
15983;DHT22;14442;50.196;8.096;2022-12-29T14:39:37;23.20;46.10
15983;DHT22;14442;50.196;8.096;2022-12-29T14:42:06;23.20;46.40
15983;DHT22;14442;50.196;8.096;2022-12-29T14:44:46;23.30;46.50
15983;DHT22;14442;50.196;8.096;2022-12-29T14:47:18;23.30;46.40
15983;DHT22;14442;50.196;8.096;2022-12-29T14:49:47;23.30;46.40
15983;DHT22;14442;50.196;8.096;2022-12-29T14:52:18;23.30;46.20
15983;DHT22;14442;50.196;8.096;2022-12-29T14:54:51;23.30;46.40
15983;DHT22;14442;50.196;8.096;2022-12-29T14:57:32;23.30;46.40
15983;DHT22;14442;50.196;8.096;2022-12-29T15:00:05;23.30;46.30
15983;DHT22;14442;50.196;8.096;2022-12-29T15:02:38;23.30;46.20
15983;DHT22;14442;50.196;8.096;2022-12-29T15:05:23;23.30;46.30
15983;DHT22;14442;50.196;8.096;2022-12-29T15:07:51;23.30;46.20
15983;DHT22;14442;50.196;8.096;2022-12-29T15:10:19;23.30;46.30
15983;DHT22;14442;50.196;8.096;2022-12-29T15:12:51;23.30;46.20
15983;DHT22;14442;50.196;8.096;2022-12-29T15:15:21;23.30;46.20
15983;DHT22;14442;50.196;8.096;2022-12-29T15:17:49;23.20;46.10
15983;DHT22;14442;50.196;8.096;2022-12-29T15:20:23;23.30;46.20
15983;DHT22;14442;50.196;8.096;2022-12-29T15:22:54;23.30;46.30
15983;DHT22;14442;50.196;8.096;2022-12-29T15:25:21;23.30;46.20
15983;DHT22;14442;50.196;8.096;2022-12-29T15:27:50;23.30;46.20
15983;DHT22;14442;50.196;8.096;2022-12-29T15:30:17;23.20;46.20
15983;DHT22;14442;50.196;8.096;2022-12-29T15:32:46;23.30;46.20
15983;DHT22;14442;50.196;8.096;2022-12-29T15:35:27;23.30;46.30
15983;DHT22;14442;50.196;8.096;2022-12-29T15:37:54;23.20;46.10
15983;DHT22;14442;50.196;8.096;2022-12-29T15:40:23;23.20;45.90
15983;DHT22;14442;50.196;8.096;2022-12-29T15:43:02;23.10;45.60
15983;DHT22;14442;50.196;8.096;2022-12-29T15:45:33;23.10;45.80
15983;DHT22;14442;50.196;8.096;2022-12-29T15:48:00;23.10;45.80
15983;DHT22;14442;50.196;8.096;2022-12-29T15:50:31;23.00;46.00
15983;DHT22;14442;50.196;8.096;2022-12-29T15:52:58;23.00;46.20
15983;DHT22;14442;50.196;8.096;2022-12-29T15:55:28;23.00;46.10
15983;DHT22;14442;50.196;8.096;2022-12-29T15:57:57;23.10;46.40
15983;DHT22;14442;50.196;8.096;2022-12-29T16:00:26;23.00;46.10
15983;DHT22;14442;50.196;8.096;2022-12-29T16:02:54;23.00;45.80
15983;DHT22;14442;50.196;8.096;2022-12-29T16:05:22;22.90;45.60
15983;DHT22;14442;50.196;8.096;2022-12-29T16:07:55;22.90;45.50